Sanko Independence — A8QJ9 — position and weather

sailwx.info

Track history (hours):
 
Tides and Currents Weather Stations Pressure Air Temp Water Temp Dewpoint Dewpoint Depression Visibility Wind Speed Wind Dir Waves Ship Positions

Sanko Independence

Last reported at 2015-May-24 21:20 UTC. Time now 2015-May-25 01:30 UTC.
Position N 36°04' W 005°04'.

Length 174 m; draft 9.1 m.

Type: Ship (hazmat cat C). MMSI: 636013946.

Date/timePositionNaut miles runAvg speedWind from/ knotsBaromVisibWave heightAir tempDewpointWater temp
2015-May-24 21:20N 36°04' W 005°04'1316.3
2015-May-24 20:33N 36°01' W 005°19'6 5.6
2015-May-24 19:34N 36°07' W 005°21'0 0.0
2015-May-24 18:33N 36°07' W 005°21'0 0.0
2015-May-24 17:33N 36°07' W 005°21'0 0.2
2015-May-24 16:33N 36°07' W 005°22'0 0.0
2015-May-24 15:33N 36°07' W 005°22'0 0.0
2015-May-24 14:33N 36°07' W 005°22'0 0.1
2015-May-24 13:33N 36°07' W 005°21'0 0.0
2015-May-24 12:33N 36°07' W 005°21'0 0.0
2015-May-24 11:33N 36°07' W 005°21'0 0.1
2015-May-24 10:33N 36°07' W 005°21'0 0.1
2015-May-24 09:33N 36°07' W 005°21'0 0.1
2015-May-24 08:33N 36°07' W 005°21'0 0.1
2015-May-24 07:33N 36°07' W 005°21'2 2.5
2015-May-24 06:34N 36°04' W 005°22'3 2.7
2015-May-24 05:33N 36°02' W 005°21'5 5.4
2015-May-24 04:33N 35°58' W 005°26'1615.1
2015-May-24 03:31N 35°55' W 005°45'9115.2
2015-May-23 21:33N 36°10' W 007°36'1615.7
2015-May-23 20:33N 36°13' W 007°54'1616.0
2015-May-23 19:33N 36°17' W 008°14'1616.0
2015-May-23 18:33N 36°21' W 008°33'1616.2
2015-May-23 17:33N 36°25' W 008°53'1616.2
2015-May-23 16:33N 36°28' W 009°12'1615.9
2015-May-23 15:33N 36°37' W 009°28'1615.8
2015-May-23 14:33N 36°50' W 009°40'1716.8
2015-May-23 13:33N 37°06' W 009°44'1716.9
2015-May-23 12:33N 37°23' W 009°49'1717.0
2015-May-23 11:33N 37°39' W 009°54'1717.1
2015-May-23 10:33N 37°56' W 009°59'1717.2
2015-May-23 09:33N 38°13' W 010°03'1716.9
2015-May-23 08:33N 38°29' W 010°09'1716.8
2015-May-23 07:33N 38°45' W 010°12'1716.7
2015-May-23 06:33N 39°02' W 010°12'1717.0
2015-May-23 05:33N 39°19' W 010°12'1716.9
2015-May-23 04:33N 39°36' W 010°12'2316.7
2015-May-23 03:11N 39°59' W 010°12'1116.9
2015-May-23 02:33N 40°10' W 010°12'1916.5
2015-May-23 01:25N 40°28' W 010°12'63915.5
2015-May-21 08:14N 49°54' W 003°11'1312.9
2015-May-21 07:15N 49°60' W 002°54'1413.9
2015-May-21 06:16N 50°04' W 002°33'1115.4
2015-May-21 05:31N 50°07' W 002°16'4016.5
2015-May-21 03:06N 49°53' W 001°18'1018.4
2015-May-21 02:33N 49°48' W 001°04'1616.5
2015-May-21 01:33N 49°40' W 000°42'1514.7
2015-May-21 00:33N 49°33' W 000°22'1413.7
2015-May-20 23:33N 49°28' W 000°02'1110.9
2015-May-20 22:33N 49°26' E 000°14'9 8.7
2015-May-20 21:33N 49°28' E 000°27'7 6.9
2015-May-20 20:33N 49°26' E 000°37'7 7.0
2015-May-20 19:33N 49°29' E 000°47'3 2.9
2015-May-20 18:32N 49°28' E 000°52'  
2015-May-18 11:20N 49°25' E 000°56'3 3.4
2015-May-18 10:33N 49°25' E 000°52'9 8.2
2015-May-18 09:30N 49°31' E 000°44'8 8.4
2015-May-18 08:33N 49°27' E 000°33'10 9.8
2015-May-18 07:34N 49°26' E 000°19'1313.3
2015-May-18 06:33N 49°28' W 000°02'7 7.1
2015-May-18 05:33N 49°30' W 000°12'6 5.8
2015-May-18 04:33N 49°33' W 000°20'8 8.0
2015-May-18 03:33N 49°37' W 000°31'9 9.0
2015-May-18 02:33N 49°41' W 000°43'1010.3
2015-May-18 01:33N 49°46' W 000°57'1111.1
2015-May-18 00:32N 49°51' W 001°13'1110.9
2015-May-17 23:33N 49°56' W 001°27'1110.7
2015-May-17 22:33N 50°01' W 001°42'1210.9
2015-May-17 21:29N 49°58' W 001°60'67014.6
2015-May-15 23:32N 44°39' W 016°29'6414.9
2015-May-15 19:13N 44°08' W 017°48'1014.9
2015-May-15 18:32N 44°04' W 018°00'6215.5
2015-May-15 14:30N 43°34' W 019°16'3816.3
2015-May-15 12:11N 43°16' W 020°02'1316.5
2015-May-15 11:23N 43°10' W 020°18'1316.3
2015-May-15 10:33N 43°03' W 020°34'1916.1
2015-May-15 09:23N 42°54' W 020°57'1416.3
2015-May-15 08:32N 42°48' W 021°13'1916.2
2015-May-15 07:21N 42°39' W 021°36'1416.1
2015-May-15 06:29N 42°32' W 021°53'1516.2
2015-May-15 05:33N 42°25' W 022°11'1616.2
2015-May-15 04:32N 42°17' W 022°31'1616.2
2015-May-15 03:33N 42°10' W 022°50'1616.2
2015-May-15 02:33N 42°02' W 023°09'1616.4
2015-May-15 01:33N 41°54' W 023°28'1616.4
2015-May-15 00:33N 41°46' W 023°48'1716.5
2015-May-14 23:31N 41°38' W 024°08'1816.5
2015-May-14 22:25N 41°29' W 024°29'1416.5
2015-May-14 21:33N 41°23' W 024°46'  
Track history (hours):
 
Tides and Currents Weather Stations Pressure Air Temp Water Temp Dewpoint Dewpoint Depression Visibility Wind Speed Wind Dir Waves Ship Positions

Sanko Independence

Last reported at 2015-May-24 21:20 UTC. Time now 2015-May-25 01:30 UTC.
Position N 36°04' W 005°04'.

Length 174 m; draft 9.1 m.

Type: Ship (hazmat cat C). MMSI: 636013946.

Date/timePositionNaut miles runAvg speedWind from/ knotsBaromVisibWave heightAir tempDewpointWater temp
2015-May-24 21:20N 36°04' W 005°04'1316.3
2015-May-24 20:33N 36°01' W 005°19'6 5.6
2015-May-24 19:34N 36°07' W 005°21'0 0.0
2015-May-24 18:33N 36°07' W 005°21'0 0.0
2015-May-24 17:33N 36°07' W 005°21'0 0.2
2015-May-24 16:33N 36°07' W 005°22'0 0.0
2015-May-24 15:33N 36°07' W 005°22'0 0.0
2015-May-24 14:33N 36°07' W 005°22'0 0.1
2015-May-24 13:33N 36°07' W 005°21'0 0.0
2015-May-24 12:33N 36°07' W 005°21'0 0.0
2015-May-24 11:33N 36°07' W 005°21'0 0.1
2015-May-24 10:33N 36°07' W 005°21'0 0.1
2015-May-24 09:33N 36°07' W 005°21'0 0.1
2015-May-24 08:33N 36°07' W 005°21'0 0.1
2015-May-24 07:33N 36°07' W 005°21'2 2.5
2015-May-24 06:34N 36°04' W 005°22'3 2.7
2015-May-24 05:33N 36°02' W 005°21'5 5.4
2015-May-24 04:33N 35°58' W 005°26'1615.1
2015-May-24 03:31N 35°55' W 005°45'9115.2
2015-May-23 21:33N 36°10' W 007°36'1615.7
2015-May-23 20:33N 36°13' W 007°54'1616.0
2015-May-23 19:33N 36°17' W 008°14'1616.0
2015-May-23 18:33N 36°21' W 008°33'1616.2
2015-May-23 17:33N 36°25' W 008°53'1616.2
2015-May-23 16:33N 36°28' W 009°12'1615.9
2015-May-23 15:33N 36°37' W 009°28'1615.8
2015-May-23 14:33N 36°50' W 009°40'1716.8
2015-May-23 13:33N 37°06' W 009°44'1716.9
2015-May-23 12:33N 37°23' W 009°49'1717.0
2015-May-23 11:33N 37°39' W 009°54'1717.1
2015-May-23 10:33N 37°56' W 009°59'1717.2
2015-May-23 09:33N 38°13' W 010°03'1716.9
2015-May-23 08:33N 38°29' W 010°09'1716.8
2015-May-23 07:33N 38°45' W 010°12'1716.7
2015-May-23 06:33N 39°02' W 010°12'1717.0
2015-May-23 05:33N 39°19' W 010°12'1716.9
2015-May-23 04:33N 39°36' W 010°12'2316.7
2015-May-23 03:11N 39°59' W 010°12'1116.9
2015-May-23 02:33N 40°10' W 010°12'1916.5
2015-May-23 01:25N 40°28' W 010°12'63915.5
2015-May-21 08:14N 49°54' W 003°11'1312.9
2015-May-21 07:15N 49°60' W 002°54'1413.9
2015-May-21 06:16N 50°04' W 002°33'1115.4
2015-May-21 05:31N 50°07' W 002°16'4016.5
2015-May-21 03:06N 49°53' W 001°18'1018.4
2015-May-21 02:33N 49°48' W 001°04'1616.5
2015-May-21 01:33N 49°40' W 000°42'1514.7
2015-May-21 00:33N 49°33' W 000°22'1413.7
2015-May-20 23:33N 49°28' W 000°02'1110.9
2015-May-20 22:33N 49°26' E 000°14'9 8.7
2015-May-20 21:33N 49°28' E 000°27'7 6.9
2015-May-20 20:33N 49°26' E 000°37'7 7.0
2015-May-20 19:33N 49°29' E 000°47'3 2.9
2015-May-20 18:32N 49°28' E 000°52'  
2015-May-18 11:20N 49°25' E 000°56'3 3.4
2015-May-18 10:33N 49°25' E 000°52'9 8.2
2015-May-18 09:30N 49°31' E 000°44'8 8.4
2015-May-18 08:33N 49°27' E 000°33'10 9.8
2015-May-18 07:34N 49°26' E 000°19'1313.3
2015-May-18 06:33N 49°28' W 000°02'7 7.1
2015-May-18 05:33N 49°30' W 000°12'6 5.8
2015-May-18 04:33N 49°33' W 000°20'8 8.0
2015-May-18 03:33N 49°37' W 000°31'9 9.0
2015-May-18 02:33N 49°41' W 000°43'1010.3
2015-May-18 01:33N 49°46' W 000°57'1111.1
2015-May-18 00:32N 49°51' W 001°13'1110.9
2015-May-17 23:33N 49°56' W 001°27'1110.7
2015-May-17 22:33N 50°01' W 001°42'1210.9
2015-May-17 21:29N 49°58' W 001°60'67014.6
2015-May-15 23:32N 44°39' W 016°29'6414.9
2015-May-15 19:13N 44°08' W 017°48'1014.9
2015-May-15 18:32N 44°04' W 018°00'6215.5
2015-May-15 14:30N 43°34' W 019°16'3816.3
2015-May-15 12:11N 43°16' W 020°02'1316.5
2015-May-15 11:23N 43°10' W 020°18'1316.3
2015-May-15 10:33N 43°03' W 020°34'1916.1
2015-May-15 09:23N 42°54' W 020°57'1416.3
2015-May-15 08:32N 42°48' W 021°13'1916.2
2015-May-15 07:21N 42°39' W 021°36'1416.1
2015-May-15 06:29N 42°32' W 021°53'1516.2
2015-May-15 05:33N 42°25' W 022°11'1616.2
2015-May-15 04:32N 42°17' W 022°31'1616.2
2015-May-15 03:33N 42°10' W 022°50'1616.2
2015-May-15 02:33N 42°02' W 023°09'1616.4
2015-May-15 01:33N 41°54' W 023°28'1616.4
2015-May-15 00:33N 41°46' W 023°48'1716.5
2015-May-14 23:31N 41°38' W 024°08'1816.5
2015-May-14 22:25N 41°29' W 024°29'1416.5
2015-May-14 21:33N 41°23' W 024°46'  

Dump ship's entire track history